createdAt,value
2019-05-17T00:00:41.431Z,10.40
2019-05-17T00:03:02.979Z,10.30
2019-05-17T00:05:23.643Z,10.30
2019-05-17T00:07:43.908Z,10.30
2019-05-17T00:10:06.760Z,10.30
2019-05-17T00:12:27.619Z,10.30
2019-05-17T00:14:48.130Z,10.20
2019-05-17T00:17:08.185Z,10.20
2019-05-17T00:19:36.748Z,10.30
2019-05-17T00:21:56.759Z,10.30
2019-05-17T00:24:18.361Z,10.20
2019-05-17T00:26:39.920Z,10.30
2019-05-17T00:29:00.032Z,10.20
2019-05-17T00:31:20.634Z,10.20
2019-05-17T00:33:40.516Z,10.20
2019-05-17T00:36:01.003Z,10.20
2019-05-17T00:38:21.474Z,10.20
2019-05-17T00:40:42.241Z,10.20
2019-05-17T00:43:02.809Z,10.30
2019-05-17T00:45:23.395Z,10.30
2019-05-17T00:47:43.515Z,10.30
2019-05-17T00:50:07.409Z,10.20
2019-05-17T00:52:28.252Z,10.20
2019-05-17T00:54:48.691Z,10.20
2019-05-17T00:57:09.240Z,10.30
2019-05-17T00:59:29.768Z,10.20
2019-05-17T01:01:50.263Z,10.20
2019-05-17T01:04:10.996Z,10.20
2019-05-17T01:06:31.490Z,10.10
2019-05-17T01:09:00.910Z,10.10
2019-05-17T01:11:16.392Z,10.10
2019-05-17T01:13:37.396Z,10.20
2019-05-17T01:15:58.184Z,10.20
2019-05-17T01:18:18.734Z,10.20
2019-05-17T01:20:39.299Z,10.20
2019-05-17T01:22:59.857Z,10.20
2019-05-17T01:25:20.402Z,10.20
2019-05-17T01:27:40.955Z,10.20
2019-05-17T01:30:01.510Z,10.20
2019-05-17T01:32:22.571Z,10.20
2019-05-17T01:34:43.037Z,10.10
2019-05-17T01:37:03.593Z,10.20
2019-05-17T01:39:23.578Z,10.10
2019-05-17T01:41:44.194Z,10.10
2019-05-17T01:44:07.344Z,10.00
2019-05-17T01:46:26.651Z,9.90
2019-05-17T01:48:47.281Z,10.00
2019-05-17T01:51:07.785Z,10.00
2019-05-17T01:53:28.761Z,10.10
2019-05-17T01:55:49.215Z,10.10
2019-05-17T01:58:09.682Z,10.10
2019-05-17T02:00:30.323Z,10.00
2019-05-17T02:02:52.491Z,10.00
2019-05-17T02:05:17.102Z,9.90
2019-05-17T02:07:37.902Z,9.90
2019-05-17T02:09:58.376Z,9.90
2019-05-17T02:12:18.892Z,9.90
2019-05-17T02:14:38.898Z,9.90
2019-05-17T02:16:59.393Z,9.90
2019-05-17T02:19:19.863Z,9.90
2019-05-17T02:21:40.322Z,9.80
2019-05-17T02:24:01.900Z,9.80
2019-05-17T02:26:22.392Z,9.90
2019-05-17T02:28:42.995Z,9.90
2019-05-17T02:31:03.909Z,9.90
2019-05-17T02:33:26.088Z,9.90
2019-05-17T02:35:46.376Z,9.90
2019-05-17T02:38:06.482Z,9.90
2019-05-17T02:40:27.148Z,9.90
2019-05-17T02:42:47.736Z,9.90
2019-05-17T02:45:08.957Z,9.80
2019-05-17T02:47:29.475Z,9.80
2019-05-17T02:49:52.352Z,9.80
2019-05-17T02:52:12.440Z,9.80
2019-05-17T02:54:33.454Z,9.80
2019-05-17T02:56:54.067Z,9.70
2019-05-17T02:59:14.760Z,9.80
2019-05-17T03:01:35.280Z,9.70
2019-05-17T03:03:55.263Z,9.60
2019-05-17T03:06:15.336Z,9.60
2019-05-17T03:08:35.412Z,9.60
2019-05-17T03:10:56.017Z,9.50
2019-05-17T03:13:18.041Z,9.50
2019-05-17T03:15:38.228Z,9.50
2019-05-17T03:17:58.721Z,9.50
2019-05-17T03:20:18.818Z,9.50
2019-05-17T03:22:38.806Z,9.40
2019-05-17T03:25:02.887Z,9.40
2019-05-17T03:27:23.268Z,9.40
2019-05-17T03:29:43.053Z,9.30
2019-05-17T03:32:08.664Z,9.40
2019-05-17T03:34:27.830Z,9.40
2019-05-17T03:36:48.643Z,9.30
2019-05-17T03:39:09.270Z,9.20
2019-05-17T03:41:33.824Z,9.10
2019-05-17T03:43:53.350Z,9.20
2019-05-17T03:46:14.330Z,9.20
2019-05-17T03:48:35.079Z,9.30
2019-05-17T03:50:55.109Z,9.30
2019-05-17T03:53:15.726Z,9.30
2019-05-17T03:55:36.365Z,9.30
2019-05-17T03:57:56.366Z,9.30
2019-05-17T04:00:16.890Z,9.20
2019-05-17T04:02:37.472Z,9.20
2019-05-17T04:04:57.992Z,9.20
2019-05-17T04:07:18.608Z,9.10
2019-05-17T04:09:38.618Z,9.10
2019-05-17T04:11:58.717Z,9.10
2019-05-17T04:14:19.272Z,9.00
2019-05-17T04:16:42.591Z,8.90
2019-05-17T04:19:03.058Z,8.90
2019-05-17T04:21:23.906Z,8.90
2019-05-17T04:23:44.561Z,9.00
2019-05-17T04:26:05.254Z,9.00
2019-05-17T04:28:25.184Z,9.00
2019-05-17T04:30:45.742Z,9.00
2019-05-17T04:33:06.352Z,9.00
2019-05-17T04:35:26.903Z,9.00
2019-05-17T04:37:47.432Z,9.00
2019-05-17T04:40:08.071Z,9.00
2019-05-17T04:42:28.639Z,8.90
2019-05-17T04:44:52.431Z,8.90
2019-05-17T04:47:13.387Z,8.90
2019-05-17T04:49:33.717Z,8.90
2019-05-17T04:51:54.234Z,9.00
2019-05-17T04:54:14.813Z,9.00
2019-05-17T04:56:35.372Z,9.10
2019-05-17T04:58:55.900Z,9.10
2019-05-17T05:01:16.526Z,9.20
2019-05-17T05:03:37.210Z,9.30
2019-05-17T05:05:57.770Z,9.30
2019-05-17T05:08:18.426Z,9.30
2019-05-17T05:10:38.974Z,9.40
2019-05-17T05:13:02.788Z,9.40
2019-05-17T05:15:38.998Z,9.40
2019-05-17T05:18:02.199Z,9.50
2019-05-17T05:20:22.215Z,9.60
2019-05-17T05:22:43.296Z,9.70
2019-05-17T05:25:07.239Z,9.80
2019-05-17T05:27:27.807Z,9.80
2019-05-17T05:29:48.363Z,9.90
2019-05-17T05:32:08.329Z,10.00
2019-05-17T05:34:28.927Z,10.10
2019-05-17T05:36:52.596Z,10.20
2019-05-17T05:39:14.120Z,10.30
2019-05-17T05:41:34.711Z,10.40
2019-05-17T05:43:55.508Z,10.50
2019-05-17T05:46:15.529Z,10.50
2019-05-17T05:48:36.062Z,10.60
2019-05-17T05:50:56.622Z,10.60
2019-05-17T05:53:17.215Z,10.80
2019-05-17T05:55:37.785Z,10.90
2019-05-17T05:57:58.326Z,11.00
2019-05-17T06:00:18.810Z,10.90
2019-05-17T06:02:41.721Z,11.00
2019-05-17T06:05:02.151Z,11.00
2019-05-17T06:07:22.305Z,11.00
2019-05-17T06:09:42.479Z,11.20
2019-05-17T06:12:02.736Z,11.40
2019-05-17T06:14:24.805Z,11.40
2019-05-17T06:16:47.680Z,11.60
2019-05-17T06:19:06.939Z,11.50
2019-05-17T06:21:26.883Z,11.40
2019-05-17T06:23:46.848Z,11.60
2019-05-17T06:26:07.180Z,11.60
2019-05-17T06:28:27.377Z,11.60
2019-05-17T06:30:47.637Z,11.50
2019-05-17T06:33:07.917Z,11.50
2019-05-17T06:35:28.574Z,11.80
2019-05-17T06:37:48.556Z,11.90
2019-05-17T06:40:12.706Z,11.90
2019-05-17T06:42:40.458Z,11.80
2019-05-17T06:44:52.411Z,11.60
2019-05-17T06:47:12.748Z,12.10
2019-05-17T06:49:32.998Z,12.30
2019-05-17T06:51:53.457Z,12.50
2019-05-17T06:54:13.747Z,12.60
2019-05-17T06:56:33.997Z,13.20
2019-05-17T06:58:54.138Z,13.20
2019-05-17T07:01:14.317Z,13.20
2019-05-17T07:03:34.516Z,12.90
2019-05-17T07:06:02.084Z,13.30
2019-05-17T07:08:22.414Z,12.90
2019-05-17T07:10:42.619Z,12.90
2019-05-17T07:13:02.915Z,13.10
2019-05-17T07:15:23.178Z,13.30
2019-05-17T07:17:43.459Z,13.30
2019-05-17T07:20:04.064Z,13.40
2019-05-17T07:22:24.308Z,13.10
2019-05-17T07:24:44.526Z,13.80
2019-05-17T07:27:04.985Z,14.40
2019-05-17T07:29:25.299Z,15.30
2019-05-17T07:31:45.468Z,15.20
2019-05-17T07:34:05.871Z,14.80
2019-05-17T07:36:26.132Z,15.40
2019-05-17T07:38:46.381Z,16.20
2019-05-17T07:41:06.604Z,16.50
2019-05-17T07:43:26.874Z,16.60
2019-05-17T07:45:49.490Z,16.60
2019-05-17T07:48:09.743Z,16.40
2019-05-17T07:50:30.170Z,15.60
2019-05-17T07:52:50.468Z,16.30
2019-05-17T07:55:11.241Z,16.50
2019-05-17T07:57:31.607Z,15.70
2019-05-17T07:59:53.460Z,14.80
2019-05-17T08:02:13.774Z,14.60
2019-05-17T08:04:34.032Z,14.20
2019-05-17T08:06:54.347Z,13.90
2019-05-17T08:09:14.574Z,13.50
2019-05-17T08:11:35.778Z,13.70
2019-05-17T08:13:56.035Z,14.20
2019-05-17T08:16:16.278Z,15.10
2019-05-17T08:18:36.585Z,14.40
2019-05-17T08:20:56.901Z,14.80
2019-05-17T08:23:19.877Z,15.70
2019-05-17T08:25:52.032Z,16.00
2019-05-17T08:28:01.112Z,15.30
2019-05-17T08:30:22.091Z,14.40
2019-05-17T08:32:42.243Z,14.40
2019-05-17T08:35:02.441Z,14.60
2019-05-17T08:37:22.744Z,14.40
2019-05-17T08:39:43.049Z,14.30
2019-05-17T08:42:03.455Z,13.90
2019-05-17T08:44:23.674Z,13.90
2019-05-17T08:46:43.928Z,14.30
2019-05-17T08:49:05.205Z,15.20
2019-05-17T08:51:25.561Z,15.30
2019-05-17T08:53:45.731Z,15.20
2019-05-17T08:56:06.145Z,15.80
2019-05-17T08:58:26.484Z,15.30
2019-05-17T09:00:46.786Z,14.80
2019-05-17T09:03:07.131Z,14.60
2019-05-17T09:05:30.068Z,15.10
2019-05-17T09:07:50.861Z,15.30
2019-05-17T09:10:11.253Z,16.40
2019-05-17T09:12:31.706Z,16.70
2019-05-17T09:14:52.065Z,16.50
2019-05-17T09:17:12.380Z,16.60
2019-05-17T09:19:33.629Z,16.90
2019-05-17T09:21:53.931Z,17.30
2019-05-17T09:24:14.164Z,17.00
2019-05-17T09:26:34.499Z,17.20
2019-05-17T09:28:54.818Z,17.30
2019-05-17T09:31:14.964Z,16.50
2019-05-17T09:33:35.167Z,16.40
2019-05-17T09:35:55.527Z,16.60
2019-05-17T09:38:15.767Z,17.40
2019-05-17T09:40:39.893Z,17.20
2019-05-17T09:43:00.536Z,17.10
2019-05-17T09:45:22.414Z,17.00
2019-05-17T09:47:42.364Z,16.60
2019-05-17T09:50:02.423Z,16.60
2019-05-17T09:52:22.517Z,16.80
2019-05-17T09:54:45.433Z,17.20
2019-05-17T09:57:04.323Z,16.70
2019-05-17T09:59:24.316Z,17.00
2019-05-17T10:01:44.574Z,16.10
2019-05-17T10:04:04.974Z,15.60
2019-05-17T10:06:25.270Z,15.90
2019-05-17T10:08:45.503Z,16.10
2019-05-17T10:11:08.896Z,16.00
2019-05-17T10:13:28.862Z,16.10
2019-05-17T10:15:50.087Z,16.20
2019-05-17T10:18:11.069Z,15.90
2019-05-17T10:20:31.305Z,16.00
2019-05-17T10:22:51.213Z,16.30
2019-05-17T10:25:11.544Z,16.20
2019-05-17T10:27:31.813Z,16.10
2019-05-17T10:29:53.015Z,16.20
2019-05-17T10:32:13.187Z,16.20
2019-05-17T10:34:33.433Z,15.40
2019-05-17T10:36:53.684Z,15.50
2019-05-17T10:39:16.485Z,15.20
2019-05-17T10:41:41.367Z,15.40
2019-05-17T10:46:53.143Z,15.80
2019-05-17T10:49:25.138Z,16.90
2019-05-17T10:51:54.574Z,17.70
2019-05-17T10:54:21.369Z,18.10
2019-05-17T10:56:52.294Z,18.50
2019-05-17T10:59:15.573Z,18.00
2019-05-17T11:01:36.799Z,17.30
2019-05-17T11:03:59.539Z,16.50
2019-05-17T11:06:27.106Z,16.30
2019-05-17T11:08:51.782Z,16.40
2019-05-17T11:11:20.371Z,16.60
2019-05-17T11:13:47.032Z,16.90
2019-05-17T11:16:19.723Z,16.70
2019-05-17T11:18:50.455Z,16.60
2019-05-17T11:21:16.018Z,16.30
2019-05-17T11:23:43.952Z,16.60
2019-05-17T11:26:19.204Z,16.40
2019-05-17T11:28:45.070Z,16.40
2019-05-17T11:31:11.600Z,16.50
2019-05-17T11:33:43.205Z,16.70
2019-05-17T11:36:19.183Z,17.50
2019-05-17T11:38:56.372Z,17.30
2019-05-17T11:41:21.419Z,17.30
2019-05-17T11:43:45.738Z,17.90
2019-05-17T11:46:35.252Z,18.20
2019-05-17T11:48:49.749Z,17.80
2019-05-17T11:51:13.487Z,17.70
2019-05-17T11:53:35.352Z,17.20
2019-05-17T11:55:59.122Z,17.00
2019-05-17T11:58:37.034Z,17.00
2019-05-17T12:00:59.715Z,17.00
2019-05-17T12:03:23.520Z,16.80
2019-05-17T12:05:52.013Z,16.60
2019-05-17T12:08:18.774Z,17.10
2019-05-17T12:10:42.516Z,17.40
2019-05-17T12:13:08.583Z,17.20
2019-05-17T12:15:44.894Z,17.50
2019-05-17T12:18:04.915Z,17.60
2019-05-17T12:20:27.590Z,18.10
2019-05-17T12:22:50.976Z,17.90
2019-05-17T12:25:11.781Z,17.40
2019-05-17T12:27:32.185Z,17.80
2019-05-17T12:29:52.420Z,17.80
2019-05-17T12:32:16.799Z,17.50
2019-05-17T12:34:34.768Z,17.10
2019-05-17T12:36:55.039Z,17.70
2019-05-17T12:39:15.360Z,17.90
2019-05-17T12:41:35.570Z,17.80
2019-05-17T12:43:55.911Z,17.70
2019-05-17T12:46:16.227Z,17.70
2019-05-17T12:48:36.466Z,18.20
2019-05-17T12:50:56.807Z,18.20
2019-05-17T12:53:17.041Z,17.80
2019-05-17T12:55:37.342Z,17.60
2019-05-17T12:57:57.529Z,17.70
2019-05-17T13:00:19.601Z,17.80
2019-05-17T13:02:39.845Z,18.20
2019-05-17T13:05:00.090Z,18.00
2019-05-17T13:07:20.440Z,18.90
2019-05-17T13:09:40.711Z,19.10
2019-05-17T13:12:00.973Z,18.70
2019-05-17T13:14:21.193Z,19.00
2019-05-17T13:16:41.465Z,18.70
2019-05-17T13:19:01.677Z,18.10
2019-05-17T13:21:21.979Z,18.00
2019-05-17T13:23:42.232Z,17.90
2019-05-17T13:26:02.451Z,17.60
2019-05-17T13:28:22.901Z,17.30
2019-05-17T13:30:43.222Z,17.20
2019-05-17T13:33:03.514Z,17.40
2019-05-17T13:35:23.786Z,16.90
2019-05-17T13:37:44.037Z,17.60
2019-05-17T13:40:06.134Z,17.50
2019-05-17T13:42:26.303Z,17.10
2019-05-17T13:44:47.209Z,16.70
2019-05-17T13:47:07.517Z,16.70
2019-05-17T13:49:27.743Z,16.90
2019-05-17T13:51:48.099Z,16.90
2019-05-17T13:54:08.572Z,17.00
2019-05-17T13:56:28.826Z,17.10
2019-05-17T13:58:48.987Z,17.20
2019-05-17T14:01:09.212Z,17.10
2019-05-17T14:03:29.491Z,16.70
2019-05-17T14:05:49.807Z,16.50
2019-05-17T14:08:10.175Z,16.20
2019-05-17T14:10:32.257Z,16.50
2019-05-17T14:12:52.378Z,16.70
2019-05-17T14:15:13.056Z,17.00
2019-05-17T14:17:33.333Z,17.00
2019-05-17T14:19:53.585Z,17.00
2019-05-17T14:22:13.807Z,16.80
2019-05-17T14:24:34.187Z,16.80
2019-05-17T14:26:54.518Z,17.00
2019-05-17T14:29:14.838Z,17.00
2019-05-17T14:31:35.172Z,17.10
2019-05-17T14:33:55.527Z,17.50
2019-05-17T14:36:15.800Z,17.30
2019-05-17T14:38:36.009Z,17.50
2019-05-17T14:41:11.719Z,17.50
2019-05-17T14:43:18.203Z,17.80
2019-05-17T14:45:38.516Z,17.60
2019-05-17T14:47:59.032Z,17.70
2019-05-17T14:50:19.416Z,17.60
2019-05-17T14:52:39.720Z,17.60
2019-05-17T14:55:00.029Z,17.80
2019-05-17T14:57:20.344Z,17.90
2019-05-17T14:59:40.649Z,17.60
2019-05-17T15:02:01.027Z,17.60
2019-05-17T15:04:21.411Z,17.20
2019-05-17T15:06:42.177Z,17.30
2019-05-17T15:09:04.805Z,17.00
2019-05-17T15:11:25.124Z,16.80
2019-05-17T15:13:45.197Z,17.00
2019-05-17T15:16:05.691Z,16.40
2019-05-17T15:18:26.023Z,16.40
2019-05-17T15:20:46.234Z,16.60
2019-05-17T15:23:06.691Z,16.70
2019-05-17T15:25:26.945Z,16.70
2019-05-17T15:27:47.115Z,16.50
2019-05-17T15:30:07.509Z,16.10
2019-05-17T15:32:27.834Z,16.10
2019-05-17T15:34:48.313Z,16.20
2019-05-17T15:37:08.658Z,16.30
2019-05-17T15:39:28.898Z,16.20
2019-05-17T15:41:49.331Z,16.20
2019-05-17T15:44:09.599Z,16.10
2019-05-17T15:46:29.869Z,16.10
2019-05-17T15:48:50.117Z,16.10
2019-05-17T15:51:10.436Z,16.30
2019-05-17T15:53:30.687Z,16.10
2019-05-17T15:55:50.888Z,16.10
2019-05-17T15:58:11.123Z,16.10
2019-05-17T16:00:50.939Z,16.20
2019-05-17T16:03:11.211Z,16.10
2019-05-17T16:05:31.376Z,16.10
2019-05-17T16:07:51.711Z,16.10
2019-05-17T16:10:14.440Z,16.30
2019-05-17T16:12:34.760Z,16.30
2019-05-17T16:14:56.681Z,16.10
2019-05-17T16:17:16.767Z,16.00
2019-05-17T16:19:37.149Z,15.60
2019-05-17T16:21:57.501Z,15.50
2019-05-17T16:24:17.844Z,15.70
2019-05-17T16:26:38.115Z,15.80
2019-05-17T16:28:59.903Z,15.70
2019-05-17T16:31:20.208Z,15.50
2019-05-17T16:33:40.439Z,15.40
2019-05-17T16:36:00.774Z,15.40
2019-05-17T16:38:21.140Z,15.50
2019-05-17T16:40:41.312Z,15.50
2019-05-17T16:43:16.778Z,15.50
2019-05-17T16:45:23.507Z,15.40
2019-05-17T16:47:43.823Z,15.30
2019-05-17T16:50:06.575Z,15.30
2019-05-17T16:52:26.906Z,15.30
2019-05-17T16:54:47.283Z,15.40
2019-05-17T16:57:07.667Z,15.40
2019-05-17T16:59:27.908Z,15.40
2019-05-17T17:01:50.105Z,15.30
2019-05-17T17:04:11.646Z,15.20
2019-05-17T17:06:31.673Z,15.20
2019-05-17T17:08:51.640Z,15.40
2019-05-17T17:11:11.639Z,15.50
2019-05-17T17:13:33.407Z,15.60
2019-05-17T17:15:53.735Z,15.50
2019-05-17T17:18:15.821Z,15.30
2019-05-17T17:20:36.058Z,15.20
2019-05-17T17:22:56.302Z,15.20
2019-05-17T17:25:17.271Z,15.20
2019-05-17T17:27:37.544Z,15.20
2019-05-17T17:29:58.862Z,15.10
2019-05-17T17:32:21.740Z,15.00
2019-05-17T17:34:42.133Z,15.00
2019-05-17T17:37:02.331Z,14.90
2019-05-17T17:39:22.582Z,14.90
2019-05-17T17:41:42.905Z,14.90
2019-05-17T17:44:03.627Z,14.80
2019-05-17T17:46:23.798Z,14.60
2019-05-17T17:48:45.876Z,14.60
2019-05-17T17:51:06.117Z,14.50
2019-05-17T17:53:26.351Z,14.50
2019-05-17T17:55:46.592Z,14.50
2019-05-17T17:58:07.059Z,14.40
2019-05-17T18:00:27.324Z,14.40
2019-05-17T18:02:47.691Z,14.20
2019-05-17T18:05:08.082Z,14.20
2019-05-17T18:07:28.311Z,14.30
2019-05-17T18:09:48.661Z,14.20
2019-05-17T18:12:09.055Z,14.00
2019-05-17T18:14:29.472Z,13.90
2019-05-17T18:16:49.726Z,13.90
2019-05-17T18:19:10.199Z,13.90
2019-05-17T18:21:30.447Z,13.90
2019-05-17T18:23:50.931Z,13.90
2019-05-17T18:26:11.252Z,13.90
2019-05-17T18:28:31.581Z,13.70
2019-05-17T18:30:51.877Z,13.70
2019-05-17T18:33:12.134Z,13.90
2019-05-17T18:35:32.428Z,13.70
2019-05-17T18:37:52.813Z,13.70
2019-05-17T18:40:13.202Z,13.60
2019-05-17T18:42:33.430Z,13.70
2019-05-17T18:44:53.754Z,13.60
2019-05-17T18:47:14.127Z,13.50
2019-05-17T18:49:36.012Z,13.50
2019-05-17T18:51:56.631Z,13.50
2019-05-17T18:54:18.193Z,13.40
2019-05-17T18:56:38.596Z,13.40
2019-05-17T18:58:58.830Z,13.40
2019-05-17T19:01:19.082Z,13.30
2019-05-17T19:03:39.478Z,13.20
2019-05-17T19:05:59.728Z,13.20
2019-05-17T19:08:20.192Z,13.20
2019-05-17T19:10:40.420Z,13.20
2019-05-17T19:13:00.943Z,13.10
2019-05-17T19:15:22.196Z,13.00
2019-05-17T19:17:43.237Z,12.90
2019-05-17T19:20:04.463Z,12.80
2019-05-17T19:22:25.064Z,12.80
2019-05-17T19:24:45.294Z,12.80
2019-05-17T19:27:08.385Z,12.80
2019-05-17T19:29:27.579Z,12.80
2019-05-17T19:31:47.302Z,12.80
2019-05-17T19:34:07.853Z,12.80
2019-05-17T19:36:27.967Z,12.80
2019-05-17T19:38:48.247Z,12.80
2019-05-17T19:41:08.407Z,12.80
2019-05-17T19:43:28.599Z,12.80
2019-05-17T19:45:49.123Z,12.70
2019-05-17T19:48:09.230Z,12.70
2019-05-17T19:50:29.267Z,12.60
2019-05-17T19:52:50.045Z,12.60
2019-05-17T19:55:10.972Z,12.60
2019-05-17T19:57:31.104Z,12.50
2019-05-17T19:59:51.668Z,12.50
2019-05-17T20:02:12.287Z,12.50
2019-05-17T20:04:32.902Z,12.50
2019-05-17T20:06:53.506Z,12.50
2019-05-17T20:09:15.087Z,12.60
2019-05-17T20:11:36.787Z,12.50
2019-05-17T20:13:56.915Z,12.50
2019-05-17T20:16:18.500Z,12.60
2019-05-17T20:18:38.509Z,12.50
2019-05-17T20:20:58.562Z,12.40
2019-05-17T20:23:18.664Z,12.40
2019-05-17T20:25:38.855Z,12.40
2019-05-17T20:28:00.157Z,12.40
2019-05-17T20:30:21.293Z,12.40
2019-05-17T20:32:43.145Z,12.40
2019-05-17T20:35:05.995Z,12.40
2019-05-17T20:37:30.590Z,12.40
2019-05-17T20:39:51.134Z,12.40
2019-05-17T20:42:11.668Z,12.40
2019-05-17T20:44:31.628Z,12.40
2019-05-17T20:46:51.913Z,12.40
2019-05-17T20:49:12.126Z,12.40
2019-05-17T20:51:35.515Z,12.40
2019-05-17T20:53:56.624Z,12.40
2019-05-17T20:56:31.364Z,12.30
2019-05-17T20:58:38.439Z,12.30
2019-05-17T21:00:59.725Z,12.40
2019-05-17T21:03:20.408Z,12.40
2019-05-17T21:05:40.330Z,12.40
2019-05-17T21:08:00.419Z,12.50
2019-05-17T21:10:20.487Z,12.50
2019-05-17T21:12:41.043Z,12.50
2019-05-17T21:15:01.669Z,12.50
2019-05-17T21:17:25.440Z,12.30
2019-05-17T21:19:45.991Z,12.30
2019-05-17T21:22:06.546Z,12.30
2019-05-17T21:24:27.656Z,12.30
2019-05-17T21:26:47.651Z,12.30
2019-05-17T21:29:08.344Z,12.30
2019-05-17T21:31:31.443Z,12.30
2019-05-17T21:33:51.715Z,12.30
2019-05-17T21:36:11.677Z,12.30
2019-05-17T21:38:32.270Z,12.20
2019-05-17T21:40:52.847Z,12.20
2019-05-17T21:43:12.960Z,12.30
2019-05-17T21:45:32.964Z,12.20
2019-05-17T21:47:53.154Z,12.30
2019-05-17T21:50:13.794Z,12.30
2019-05-17T21:52:33.809Z,12.30
2019-05-17T21:54:53.765Z,12.30
2019-05-17T21:57:14.316Z,12.30
2019-05-17T21:59:34.848Z,12.20
2019-05-17T22:01:55.815Z,12.20
2019-05-17T22:04:16.866Z,12.10
2019-05-17T22:06:36.868Z,12.10
2019-05-17T22:08:57.476Z,12.20
2019-05-17T22:11:17.577Z,12.20
2019-05-17T22:13:38.065Z,12.20
2019-05-17T22:15:58.049Z,12.20
2019-05-17T22:18:18.745Z,12.20
2019-05-17T22:20:39.522Z,12.20
2019-05-17T22:22:59.526Z,12.20
2019-05-17T22:25:20.170Z,12.20
2019-05-17T22:27:40.723Z,12.20
2019-05-17T22:30:00.780Z,12.20
2019-05-17T22:32:21.159Z,12.20
2019-05-17T22:34:41.838Z,12.20
2019-05-17T22:37:01.777Z,12.20
2019-05-17T22:39:21.879Z,12.20
2019-05-17T22:41:41.884Z,12.20
2019-05-17T22:44:02.591Z,12.10
2019-05-17T22:46:35.784Z,12.10
2019-05-17T22:48:45.355Z,12.10
2019-05-17T22:51:05.415Z,12.10
2019-05-17T22:53:29.580Z,12.20
2019-05-17T22:55:49.333Z,12.10
2019-05-17T22:58:09.453Z,12.10
2019-05-17T23:00:29.479Z,12.10
2019-05-17T23:02:49.533Z,12.10
2019-05-17T23:05:10.312Z,12.00
2019-05-17T23:07:30.844Z,12.00
2019-05-17T23:09:50.771Z,12.00
2019-05-17T23:12:10.660Z,12.00
2019-05-17T23:14:31.264Z,12.00
2019-05-17T23:16:52.192Z,12.10
2019-05-17T23:19:13.176Z,12.10
2019-05-17T23:21:33.228Z,12.10
2019-05-17T23:23:53.193Z,12.00
2019-05-17T23:26:13.690Z,12.00
2019-05-17T23:28:34.329Z,11.90
2019-05-17T23:30:54.950Z,11.90
2019-05-17T23:33:14.880Z,12.00
2019-05-17T23:35:35.441Z,12.00
2019-05-17T23:37:55.584Z,12.00
2019-05-17T23:40:16.235Z,11.90
2019-05-17T23:42:36.163Z,11.90
2019-05-17T23:44:56.830Z,11.80
2019-05-17T23:47:16.858Z,11.80
2019-05-17T23:49:36.852Z,11.70
2019-05-17T23:51:57.402Z,11.60
2019-05-17T23:54:17.406Z,11.50
2019-05-17T23:56:37.343Z,11.50
2019-05-17T23:58:58.855Z,11.40
